Latest Weather Observations for Adele Island

IDW60801

Issued at 10:05 am WST Thursday 21 August 2014 (issued every 30 minutes, with the page automatically refreshed every 10 minutes)

About weather observations | Map of weather stations | Latest weather observations for WA | Other Formats
Station Details ID: 200735 Name: ADELE ISLAND Lat: -15.51 Lon: 123.16 Height: 4.6 m
Data from the previous 72 hours. | See also: Recent months for locations in Western Australia
Date/Time
WST
Temp
°C
App
Temp
°C
Dew
Point
Rel
Hum
%
Delta-T
°C
Wind Press
QNH
hPa
Press
MSL
hPa
Rain
since 9 am
mm
Dir
 
Spd
km/h
Gust
km/h
Spd
kts
Gust
kts
21/10:00am 24.3 - - - - SE 11 17 6 9 1016.5 1016.4 -
21/09:30am 24.3 - - - - SE 13 19 7 10 1016.6 1016.5 -
21/09:00am 24.7 - - - - SE 13 17 7 9 1016.4 1016.3 -
21/08:30am 24.5 - - - - SE 13 19 7 10 1016.3 1016.2 -
21/08:00am 24.4 - - - - SSE 13 17 7 9 1016.1 1016.0 -
21/07:30am 23.7 - - - - SSE 9 11 5 6 1015.8 1015.7 -
21/07:00am 23.7 - - - - SSE 11 11 6 6 1015.6 1015.5 -
21/06:30am 23.6 - - - - SSE 13 13 7 7 1015.2 1015.1 -
21/06:00am 23.6 - - - - SSE 9 11 5 6 1014.7 1014.6 -
21/05:30am 23.6 - - - - SSE 9 11 5 6 1014.5 1014.4 -
21/05:00am 23.7 - - - - ENE 7 7 4 4 1014.3 1014.2 -
21/04:30am 23.6 - - - - NE 6 7 3 4 1014.2 1014.1 -
21/04:00am 23.6 - - - - NE 6 7 3 4 1014.0 1013.9 -
21/03:30am 23.7 - - - - NE 6 7 3 4 1014.0 1013.9 -
21/03:00am 23.7 - - - - CALM 0 6 0 3 1014.1 1014.0 -
21/02:30am 23.9 - - - - NNE 4 6 2 3 1014.2 1014.1 -
21/02:00am 23.9 - - - - NNE 6 6 3 3 1014.2 1014.1 -
21/01:30am 23.7 - - - - NNE 2 6 1 3 1014.3 1014.2 -
21/01:00am 24.2 - - - - N 6 7 3 4 1014.4 1014.3 -
21/12:30am 24.8 - - - - NNW 7 9 4 5 1014.5 1014.4 -
21/12:00am 24.6 - - - - NW 9 9 5 5 1014.6 1014.5 -
 
Date/Time
WST
Temp
°C
App
Temp
°C
Dew
Point
Rel
Hum
%
Delta-T
°C
Wind Press
QNH
hPa
Press
MSL
hPa
Rain
since 9 am
mm
Dir
 
Spd
km/h
Gust
km/h
Spd
kts
Gust
kts
20/11:30pm 24.5 - - - - NNW 7 9 4 5 1014.7 1014.6 -
20/11:00pm 24.8 - - - - WNW 13 15 7 8 1014.8 1014.7 -
20/10:30pm 24.9 - - - - NW 13 15 7 8 1014.9 1014.8 -
20/10:00pm 24.8 - - - - NW 13 15 7 8 1015.0 1014.9 -
20/09:30pm 24.9 - - - - NW 11 13 6 7 1015.2 1015.1 -
20/09:00pm 24.7 - - - - NNW 11 13 6 7 1015.3 1015.2 -
20/08:30pm 24.5 - - - - NNW 11 13 6 7 1015.4 1015.3 -
20/08:00pm 24.8 - - - - NNW 11 11 6 6 1015.5 1015.4 -
20/07:30pm 24.8 - - - - N 11 13 6 7 1015.2 1015.1 -
20/07:00pm 24.7 - - - - N 9 11 5 6 1015.0 1014.9 -
20/06:30pm 24.6 - - - - N 7 11 4 6 1014.8 1014.7 -
20/06:00pm 24.6 - - - - N 6 7 3 4 1014.7 1014.6 -
20/05:30pm 24.9 - - - - N 2 7 1 4 1014.7 1014.6 -
20/05:00pm 24.9 - - - - N 7 9 4 5 1014.5 1014.4 -
20/04:30pm 25.2 - - - - N 7 9 4 5 1014.3 1014.2 -
20/04:00pm 25.4 - - - - N 9 11 5 6 1014.2 1014.1 -
20/03:30pm 25.6 - - - - N 9 11 5 6 1014.0 1013.9 -
20/03:00pm 25.8 - - - - NNE 7 11 4 6 1013.9 1013.8 -
20/02:30pm 25.8 - - - - NNE 9 13 5 7 1014.1 1014.0 -
20/02:00pm 25.4 - - - - ENE 11 13 6 7 1014.2 1014.1 -
20/01:30pm 25.9 - - - - ENE 11 15 6 8 1014.5 1014.4 -
20/01:00pm 25.4 - - - - ENE 13 17 7 9 1014.7 1014.6 -
20/12:30pm 26.0 - - - - ENE 11 17 6 9 1015.2 1015.1 -
20/12:00pm 25.7 - - - - E 13 17 7 9 1015.6 1015.5 -
20/11:30am 25.7 - - - - E 13 17 7 9 1015.9 1015.8 -
20/11:00am 25.0 - - - - E 13 17 7 9 1016.3 1016.2 -
20/10:30am 24.9 - - - - ESE 15 20 8 11 1016.6 1016.5 -
20/10:00am 25.9 - - - - ESE 13 19 7 10 1016.8 1016.7 -
20/09:30am 24.9 - - - - ESE 15 19 8 10 1017.0 1016.9 -
20/09:00am 24.8 - - - - SE 15 19 8 10 1017.2 1017.1 -
20/08:30am 24.8 - - - - SE 13 17 7 9 1017.0 - -
20/08:00am 24.5 - - - - SE 11 13 6 7 1016.7 1016.6 -
20/07:30am 23.2 - - - - SSE 9 11 5 6 1016.3 - -
20/07:00am 22.4 - - - - SSE 13 15 7 8 1016.0 1015.9 -
20/06:30am 22.4 - - - - SSE 15 17 8 9 1015.8 - -
20/06:00am 22.6 - - - - SSE 15 15 8 8 1015.4 1015.3 -
20/05:30am 22.4 - - - - SSE 13 15 7 8 1015.2 - -
20/05:00am 22.2 - - - - SSE 15 15 8 8 1014.9 1014.8 -
20/04:30am 21.8 - - - - S 17 19 9 10 1014.8 - -
20/04:00am 23.2 - - - - SSE 13 15 7 8 1014.6 1014.5 -
20/03:30am 23.3 - - - - S 11 11 6 6 1014.7 - -
20/03:00am 23.3 - - - - SSW 11 13 6 7 1014.7 1014.6 -
20/02:30am 23.6 - - - - WSW 9 11 5 6 1014.8 - -
20/02:00am 24.0 - - - - W 11 13 6 7 1015.0 1014.9 -
20/01:30am 24.0 - - - - NW 11 13 6 7 1015.0 - -
20/01:00am 24.0 - - - - NW 11 11 6 6 1015.1 1015.0 -
20/12:30am 23.9 - - - - NW 9 11 5 6 1015.4 - -
20/12:00am 23.8 - - - - W 9 11 5 6 1015.7 1015.6 -
 
Date/Time
WST
Temp
°C
App
Temp
°C
Dew
Point
Rel
Hum
%
Delta-T
°C
Wind Press
QNH
hPa
Press
MSL
hPa
Rain
since 9 am
mm
Dir
 
Spd
km/h
Gust
km/h
Spd
kts
Gust
kts
19/11:30pm 24.1 - - - - WNW 11 13 6 7 1016.1 - -
19/11:00pm 23.8 - - - - WNW 11 13 6 7 1016.2 1016.1 -
19/10:30pm 23.8 - - - - W 13 17 7 9 1016.5 - -
19/10:00pm 23.8 - - - - NW 11 13 6 7 1016.7 1016.6 -
19/09:30pm 23.7 - - - - NW 11 13 6 7 1016.7 - -
19/09:00pm 23.6 - - - - NW 11 13 6 7 1016.7 1016.6 -
19/08:30pm 23.7 - - - - N 7 9 4 5 1016.8 - -
19/08:00pm 23.7 - - - - N 7 9 4 5 1016.8 1016.7 -
19/07:30pm 23.4 - - - - W 9 11 5 6 1016.8 - -
19/07:00pm 23.1 - - - - SW 11 13 6 7 1016.4 1016.3 -
19/06:30pm 23.9 - - - - WNW 9 11 5 6 1015.9 - -
19/06:00pm 23.8 - - - - N 7 7 4 4 1015.2 1015.1 -
19/05:30pm 23.9 - - - - NNW 7 9 4 5 1015.0 - -
19/05:00pm 24.3 - - - - NNW 6 7 3 4 1014.9 1014.8 -
19/04:30pm 24.6 - - - - NW 9 11 5 6 1015.1 - -
19/04:00pm 24.3 - - - - NW 9 13 5 7 1015.1 1015.0 -
19/03:30pm 24.6 - - - - WNW 9 13 5 7 1015.0 - -
19/03:00pm 24.9 - - - - SW 11 15 6 8 1015.0 1014.9 -
19/02:30pm 24.8 - - - - SW 13 19 7 10 1015.1 - -
19/02:00pm 25.3 - - - - WSW 11 15 6 8 1015.2 1015.1 -
19/01:30pm 24.7 - - - - SW 9 15 5 8 1015.4 - -
19/01:00pm 24.7 - - - - NNW 9 15 5 8 1015.8 1015.7 -
19/12:30pm 25.3 - - - - N 7 11 4 6 1016.1 - -
19/12:00pm 25.2 - - - - NNW 7 11 4 6 1016.6 1016.5 -
19/11:30am 25.2 - - - - NE 9 15 5 8 1017.1 - -
19/11:00am 25.8 - - - - SSE 6 9 3 5 1017.3 1017.2 -
19/10:30am 25.5 - - - - E 7 11 4 6 1017.7 - -
19/10:00am 25.3 - - - - ESE 9 13 5 7 1018.0 1017.9 -
19/09:30am 25.5 - - - - ESE 9 13 5 7 1018.1 - -
19/09:00am 24.6 - - - - ESE 9 11 5 6 1018.2 1018.1 -
19/08:30am 24.7 - - - - SE 7 13 4 7 1018.3 - -
19/08:00am 24.0 - - - - SSE 7 9 4 5 1018.4 1018.3 -
19/07:30am 23.4 - - - - N 6 7 3 4 1018.3 - -
19/07:00am 23.4 - - - - NNW 6 7 3 4 1017.9 1017.8 -
19/06:30am 22.9 - - - - S 6 7 3 4 1017.7 - -
19/06:00am 23.0 - - - - S 6 6 3 3 1017.3 1017.2 -
19/05:30am 22.9 - - - - S 6 6 3 3 1017.0 - -
19/05:00am 23.0 - - - - NE 6 6 3 3 1016.7 1016.6 -
19/04:30am 23.2 - - - - ENE 6 7 3 4 1016.6 - -
19/04:00am 23.1 - - - - ESE 9 9 5 5 1016.6 1016.5 -
19/03:30am 22.8 - - - - ENE 6 7 3 4 1016.5 - -
19/03:00am 22.9 - - - - NE 9 9 5 5 1016.5 1016.4 -
19/02:30am 23.1 - - - - NNE 7 9 4 5 1016.5 - -
19/02:00am 22.2 - - - - CALM 0 0 0 0 1016.4 1016.3 -
19/01:30am 23.0 - - - - CALM 0 0 0 0 1016.5 - -
19/01:00am 23.5 - - - - N 7 9 4 5 1016.6 1016.5 -
19/12:30am 23.5 - - - - N 9 9 5 5 1016.6 - -
19/12:00am 23.4 - - - - N 6 7 3 4 1016.9 1016.8 -
 
Date/Time
WST
Temp
°C
App
Temp
°C
Dew
Point
Rel
Hum
%
Delta-T
°C
Wind Press
QNH
hPa
Press
MSL
hPa
Rain
since 9 am
mm
Dir
 
Spd
km/h
Gust
km/h
Spd
kts
Gust
kts
18/11:30pm 23.5 - - - - N 9 9 5 5 1017.2 - -
18/11:00pm 23.6 - - - - N 7 9 4 5 1017.3 1017.2 -
18/10:30pm 23.5 - - - - N 7 9 4 5 1017.6 - -
18/10:00pm 23.7 - - - - N 9 11 5 6 1017.5 1017.4 -
18/09:30pm 23.4 - - - - CALM 0 0 0 0 1017.5 - -
18/09:00pm 23.1 - - - - NNE 2 6 1 3 1017.5 1017.4 -
18/08:30pm 23.2 - - - - NNE 6 7 3 4 1017.4 - -
18/08:00pm 23.4 - - - - NE 6 7 3 4 1017.3 1017.2 -
18/07:30pm 23.4 - - - - NE 7 9 4 5 1017.3 - -
18/07:00pm 23.4 - - - - NNE 6 7 3 4 1016.9 1016.8 -
18/06:30pm 23.4 - - - - NE 6 7 3 4 1016.6 - -
18/06:00pm 23.5 - - - - NNE 6 7 3 4 1016.3 1016.2 -
18/05:30pm 23.9 - - - - CALM 0 0 0 0 1016.1 - -
18/05:00pm 24.3 - - - - E 6 7 3 4 1015.9 1015.8 -
18/04:30pm 24.8 - - - - E 7 9 4 5 1015.8 - -
18/04:00pm 24.7 - - - - ENE 7 13 4 7 1015.5 1015.4 -
18/03:30pm 25.5 - - - - NE 6 9 3 5 1015.3 - -
18/03:00pm 25.3 - - - - N 6 9 3 5 1015.3 1015.2 -
18/02:30pm 25.1 - - - - NNE 9 13 5 7 1015.4 - -
18/02:00pm 25.7 - - - - NNE 9 13 5 7 1015.4 1015.3 -
18/01:30pm 25.5 - - - - N 9 13 5 7 1015.7 - -
18/01:00pm 26.0 - - - - WNW 6 11 3 6 1016.1 1016.0 -
18/12:30pm 25.9 - - - - NNE 7 11 4 6 1016.4 - -
18/12:00pm 25.2 - - - - NW 7 13 4 7 1016.7 1016.6 -
18/11:30am 25.8 - - - - SW 7 11 4 6 1016.9 - -
18/11:00am 25.1 - - - - WSW 11 15 6 8 1017.1 1017.0 -
18/10:30am 24.6 - - - - WSW 13 17 7 9 1017.4 - -

Other Formats:

Comma delimited format used in spreadsheet applications
http://www.bom.gov.au/fwo/IDW60801/IDW60801.94210.axf

JavaScript Object Notation format (JSON) in row-major order
http://www.bom.gov.au/fwo/IDW60801/IDW60801.94210.json